createdAt,value
2022-09-28T00:01:55.906Z,93192.88
2022-09-28T00:04:24.684Z,93195.88
2022-09-28T00:06:53.369Z,93189.06
2022-09-28T00:09:21.967Z,93196.38
2022-09-28T00:11:50.595Z,93190.00
2022-09-28T00:14:19.913Z,93194.50
2022-09-28T00:16:49.962Z,93186.56
2022-09-28T00:19:20.586Z,93182.94
2022-09-28T00:21:49.275Z,93179.78
2022-09-28T00:24:22.995Z,93176.63
2022-09-28T00:27:04.187Z,93174.53
2022-09-28T00:29:35.388Z,93168.50
2022-09-28T00:32:11.737Z,93162.47
2022-09-28T00:34:44.507Z,93163.28
2022-09-28T00:37:14.299Z,93168.56
2022-09-28T00:39:43.679Z,93165.06
2022-09-28T00:42:21.543Z,93164.16
2022-09-28T00:44:57.497Z,93156.69
2022-09-28T00:47:41.285Z,93165.41
2022-09-28T00:50:16.166Z,93158.59
2022-09-28T00:52:51.211Z,93157.19
2022-09-28T00:55:29.094Z,93166.56
2022-09-28T00:58:02.333Z,93167.84
2022-09-28T01:00:31.266Z,93165.75
2022-09-28T01:03:01.119Z,93165.25
2022-09-28T01:05:29.531Z,93162.38
2022-09-28T01:07:59.238Z,93164.44
2022-09-28T01:10:31.555Z,93161.72
2022-09-28T01:13:00.622Z,93163.91
2022-09-28T01:15:32.803Z,93162.91
2022-09-28T01:18:22.669Z,93163.31
2022-09-28T01:21:18.619Z,93161.81
2022-09-28T01:24:05.208Z,93160.31
2022-09-28T01:26:45.469Z,93165.34
2022-09-28T01:29:43.999Z,93167.31
2022-09-28T01:32:27.899Z,93166.94
2022-09-28T01:35:02.836Z,93176.84
2022-09-28T01:37:42.295Z,93172.81
2022-09-28T01:40:13.696Z,93174.75
2022-09-28T01:42:45.301Z,93176.59
2022-09-28T01:45:30.206Z,93176.28
2022-09-28T01:48:04.622Z,93170.03
2022-09-28T01:50:38.167Z,93169.50
2022-09-28T01:53:19.990Z,93174.28
2022-09-28T01:55:57.156Z,93172.72
2022-09-28T01:58:37.322Z,93171.91
2022-09-28T02:01:15.652Z,93174.50
2022-09-28T02:03:57.716Z,93171.13
2022-09-28T02:06:53.544Z,93169.03
2022-09-28T02:09:38.594Z,93165.44
2022-09-28T02:12:17.434Z,93165.16
2022-09-28T02:14:49.423Z,93170.13
2022-09-28T02:17:18.243Z,93171.41
2022-09-28T02:19:47.034Z,93168.31
2022-09-28T02:22:36.630Z,93165.22
2022-09-28T02:25:20.956Z,93167.31
2022-09-28T02:28:12.001Z,93163.00
2022-09-28T02:30:45.503Z,93166.88
2022-09-28T02:33:26.053Z,93163.59
2022-09-28T02:35:54.748Z,93163.94
2022-09-28T02:38:23.354Z,93163.44
2022-09-28T02:41:06.068Z,93163.16
2022-09-28T02:43:54.266Z,93163.38
2022-09-28T02:46:37.479Z,93163.91
2022-09-28T02:49:22.746Z,93167.22
2022-09-28T02:52:04.123Z,93159.63
2022-09-28T02:55:09.354Z,93166.75
2022-09-28T02:57:58.869Z,93165.53
2022-09-28T03:00:27.174Z,93166.22
2022-09-28T03:03:30.635Z,93163.22
2022-09-28T03:06:11.710Z,93168.59
2022-09-28T03:08:56.077Z,93173.28
2022-09-28T03:11:44.031Z,93174.03
2022-09-28T03:14:13.506Z,93168.53
2022-09-28T03:16:45.529Z,93168.84
2022-09-28T03:19:15.723Z,93174.03
2022-09-28T03:21:44.321Z,93175.28
2022-09-28T03:24:12.657Z,93172.19
2022-09-28T03:26:41.260Z,93175.75
2022-09-28T03:29:09.871Z,93173.88
2022-09-28T03:31:38.676Z,93164.59
2022-09-28T03:34:07.052Z,93168.84
2022-09-28T03:36:35.746Z,93163.47
2022-09-28T03:39:04.429Z,93162.78
2022-09-28T03:41:32.968Z,93160.66
2022-09-28T03:44:01.873Z,93158.47
2022-09-28T03:46:30.353Z,93161.16
2022-09-28T03:49:02.377Z,93157.69
2022-09-28T03:51:31.098Z,93162.28
2022-09-28T03:53:59.799Z,93173.38
2022-09-28T03:56:29.023Z,93166.44
2022-09-28T03:58:57.564Z,93174.97
2022-09-28T04:01:26.205Z,93173.56
2022-09-28T04:03:58.284Z,93183.06
2022-09-28T04:06:27.338Z,93186.69
2022-09-28T04:08:56.108Z,93178.72
2022-09-28T04:11:25.612Z,93184.59
2022-09-28T04:13:54.199Z,93183.63
2022-09-28T04:16:23.284Z,93185.44
2022-09-28T04:18:52.439Z,93192.16
2022-09-28T04:21:21.954Z,93186.38
2022-09-28T04:23:50.902Z,93189.66
2022-09-28T04:26:25.023Z,93189.00
2022-09-28T04:29:12.365Z,93189.09
2022-09-28T04:31:55.102Z,93198.06
2022-09-28T04:34:24.512Z,93200.19
2022-09-28T04:36:53.053Z,93195.75
2022-09-28T04:39:21.657Z,93215.03
2022-09-28T04:41:51.227Z,93205.63
2022-09-28T04:44:19.587Z,93208.63
2022-09-28T04:46:48.135Z,93215.34
2022-09-28T04:49:16.788Z,93216.25
2022-09-28T04:51:45.495Z,93218.19
2022-09-28T04:54:14.049Z,93220.69
2022-09-28T04:56:43.043Z,93220.28
2022-09-28T04:59:11.489Z,93215.00
2022-09-28T05:01:40.043Z,93212.44
2022-09-28T05:04:08.705Z,93212.72
2022-09-28T05:06:37.342Z,93212.25
2022-09-28T05:09:05.915Z,93209.34
2022-09-28T05:11:34.487Z,93225.09
2022-09-28T05:14:02.977Z,93222.69
2022-09-28T05:16:34.953Z,93216.28
2022-09-28T05:19:03.350Z,93231.47
2022-09-28T05:21:32.123Z,93221.88
2022-09-28T05:24:00.857Z,93230.69
2022-09-28T05:26:29.438Z,93225.38
2022-09-28T05:28:57.776Z,93229.38
2022-09-28T05:31:28.429Z,93225.13
2022-09-28T05:33:57.165Z,93227.56
2022-09-28T05:36:28.100Z,93221.97
2022-09-28T05:38:56.703Z,93221.97
2022-09-28T05:41:25.014Z,93213.69
2022-09-28T05:43:54.686Z,93217.94
2022-09-28T05:46:24.932Z,93212.06
2022-09-28T05:48:56.223Z,93216.34
2022-09-28T05:51:26.635Z,93214.50
2022-09-28T05:54:04.629Z,93208.66
2022-09-28T05:56:34.611Z,93215.28
2022-09-28T05:59:07.043Z,93216.34
2022-09-28T06:01:35.667Z,93212.06
2022-09-28T06:04:04.358Z,93209.94
2022-09-28T06:06:37.903Z,93210.91
2022-09-28T06:09:06.454Z,93215.16
2022-09-28T06:11:35.027Z,93219.91
2022-09-28T06:14:03.612Z,93218.53
2022-09-28T06:16:32.235Z,93216.41
2022-09-28T06:19:00.730Z,93210.25
2022-09-28T06:21:29.694Z,93212.34
2022-09-28T06:23:58.247Z,93211.03
2022-09-28T06:26:27.012Z,93212.59
2022-09-28T06:28:55.960Z,93212.34
2022-09-28T06:31:28.517Z,93212.59
2022-09-28T06:33:56.866Z,93216.13
2022-09-28T06:36:26.069Z,93219.03
2022-09-28T06:38:54.641Z,93215.28
2022-09-28T06:41:23.208Z,93217.34
2022-09-28T06:43:53.522Z,93206.75
2022-09-28T06:46:22.775Z,93212.28
2022-09-28T06:48:51.644Z,93219.97
2022-09-28T06:51:20.466Z,93210.69
2022-09-28T06:53:49.163Z,93200.06
2022-09-28T06:56:17.947Z,93204.28
2022-09-28T06:58:46.547Z,93208.53
2022-09-28T07:01:15.312Z,93204.81
2022-09-28T07:03:44.458Z,93205.88
2022-09-28T07:06:14.019Z,93208.75
2022-09-28T07:08:42.758Z,93206.63
2022-09-28T07:11:11.380Z,93203.19
2022-09-28T07:13:50.399Z,93206.16
2022-09-28T07:16:25.688Z,93195.81
2022-09-28T07:18:55.589Z,93194.28
2022-09-28T07:21:29.729Z,93195.91
2022-09-28T07:23:58.668Z,93193.53
2022-09-28T07:26:27.079Z,93199.94
2022-09-28T07:28:57.029Z,93200.47
2022-09-28T07:31:26.445Z,93194.63
2022-09-28T07:33:55.131Z,93190.94
2022-09-28T07:36:24.079Z,93195.16
2022-09-28T07:38:52.483Z,93197.53
2022-09-28T07:41:33.462Z,93188.50
2022-09-28T07:44:08.807Z,93194.09
2022-09-28T07:46:38.349Z,93189.03
2022-09-28T07:49:09.811Z,93191.69
2022-09-28T07:51:40.812Z,93193.53
2022-09-28T07:54:09.454Z,93189.28
2022-09-28T07:56:38.011Z,93195.16
2022-09-28T07:59:06.337Z,93192.44
2022-09-28T08:01:34.830Z,93191.06
2022-09-28T08:04:03.227Z,93190.50
2022-09-28T08:06:32.404Z,93192.09
2022-09-28T08:09:02.979Z,93184.13
2022-09-28T08:11:31.796Z,93191.84
2022-09-28T08:14:01.563Z,93188.63
2022-09-28T08:16:31.593Z,93181.47
2022-09-28T08:19:00.242Z,93183.84
2022-09-28T08:21:47.060Z,93181.94
2022-09-28T08:24:20.382Z,93184.25
2022-09-28T08:26:48.970Z,93187.97
2022-09-28T08:29:18.209Z,93178.94
2022-09-28T08:31:49.873Z,93181.34
2022-09-28T08:34:17.912Z,93182.41
2022-09-28T08:36:46.570Z,93184.78
2022-09-28T08:39:15.168Z,93182.47
2022-09-28T08:42:07.915Z,93186.19
2022-09-28T08:45:08.961Z,93189.88
2022-09-28T08:47:55.693Z,93190.09
2022-09-28T08:50:30.331Z,93186.38
2022-09-28T08:53:13.559Z,93176.28
2022-09-28T08:55:45.927Z,93183.50
2022-09-28T08:58:19.942Z,93176.38
2022-09-28T09:00:51.260Z,93183.09
2022-09-28T09:03:25.022Z,93178.91
2022-09-28T09:06:02.711Z,93179.50
2022-09-28T09:08:56.920Z,93181.63
2022-09-28T09:11:39.315Z,93182.69
2022-09-28T09:14:16.238Z,93190.69
2022-09-28T09:17:08.155Z,93175.25
2022-09-28T09:19:39.673Z,93172.03
2022-09-28T09:22:30.965Z,93174.16
2022-09-28T09:25:29.756Z,93176.31
2022-09-28T09:28:31.591Z,93182.44
2022-09-28T09:31:12.682Z,93175.81
2022-09-28T09:33:49.689Z,93178.47
2022-09-28T09:36:42.171Z,93174.75
2022-09-28T09:39:39.693Z,93173.69
2022-09-28T09:42:19.980Z,93174.75
2022-09-28T09:44:54.728Z,93176.34
2022-09-28T09:47:31.832Z,93174.22
2022-09-28T09:50:08.979Z,93173.41
2022-09-28T09:52:39.894Z,93174.22
2022-09-28T09:55:20.608Z,93178.44
2022-09-28T09:58:06.444Z,93174.19
2022-09-28T10:00:35.066Z,93176.31
2022-09-28T10:03:04.290Z,93177.09
2022-09-28T10:05:35.548Z,93168.06
2022-09-28T10:08:19.453Z,93178.16
2022-09-28T10:10:53.061Z,93175.22
2022-09-28T10:13:21.434Z,93181.56
2022-09-28T10:15:51.153Z,93185.53
2022-09-28T10:18:22.860Z,93184.63
2022-09-28T10:20:51.454Z,93175.78
2022-09-28T10:23:27.391Z,93173.31
2022-09-28T10:26:02.014Z,93177.78
2022-09-28T10:29:00.248Z,93172.72
2022-09-28T10:31:39.397Z,93175.88
2022-09-28T10:34:10.219Z,93168.34
2022-09-28T10:37:01.949Z,93169.47
2022-09-28T10:39:45.701Z,93165.94
2022-09-28T10:42:28.935Z,93171.63
2022-09-28T10:45:21.272Z,93168.94
2022-09-28T10:47:50.922Z,93168.69
2022-09-28T10:50:28.203Z,93172.44
2022-09-28T10:53:21.725Z,93177.50
2022-09-28T10:56:05.239Z,93170.81
2022-09-28T10:58:41.754Z,93169.81
2022-09-28T11:01:19.885Z,93172.91
2022-09-28T11:03:51.724Z,93171.53
2022-09-28T11:06:42.113Z,93174.94
2022-09-28T11:09:34.539Z,93176.28
2022-09-28T11:12:08.119Z,93169.69
2022-09-28T11:14:45.019Z,93176.66
2022-09-28T11:17:26.773Z,93176.78
2022-09-28T11:20:00.802Z,93171.22
2022-09-28T11:22:35.277Z,93172.66
2022-09-28T11:25:22.539Z,93179.59
2022-09-28T11:27:54.180Z,93185.69
2022-09-28T11:31:01.146Z,93163.72
2022-09-28T11:33:41.817Z,93189.94
2022-09-28T11:36:26.039Z,93182.66
2022-09-28T11:39:13.597Z,93183.41
2022-09-28T11:41:42.232Z,93174.16
2022-09-28T11:44:34.912Z,93171.56
2022-09-28T11:47:40.577Z,93168.25
2022-09-28T11:50:32.663Z,93166.88
2022-09-28T11:53:05.695Z,93165.53
2022-09-28T11:56:09.494Z,93172.28
2022-09-28T11:58:54.968Z,93165.22
2022-09-28T12:01:44.659Z,93173.00
2022-09-28T12:04:56.191Z,93171.50
2022-09-28T12:07:32.561Z,93169.41
2022-09-28T12:10:45.515Z,93157.31
2022-09-28T12:13:20.087Z,93163.72
2022-09-28T12:16:32.323Z,93156.09
2022-09-28T12:19:04.012Z,93160.44
2022-09-28T12:21:40.925Z,93158.56
2022-09-28T12:24:32.479Z,93160.72
2022-09-28T12:27:30.599Z,93164.06
2022-09-28T12:30:21.946Z,93162.00
2022-09-28T12:33:03.322Z,93176.56
2022-09-28T12:35:34.916Z,93169.84
2022-09-28T12:38:21.569Z,93177.84
2022-09-28T12:40:55.112Z,93178.41
2022-09-28T12:43:44.817Z,93176.34
2022-09-28T12:46:50.957Z,93180.19
2022-09-28T12:52:29.599Z,93173.84
2022-09-28T12:55:14.600Z,93185.28
2022-09-28T12:58:09.464Z,93177.84
2022-09-28T13:01:20.434Z,93180.22
2022-09-28T13:04:11.424Z,93179.69
2022-09-28T13:06:53.462Z,93182.34
2022-09-28T13:09:27.103Z,93177.53
2022-09-28T13:12:14.562Z,93186.84
2022-09-28T13:15:33.381Z,93183.28
2022-09-28T13:18:17.393Z,93182.06
2022-09-28T13:21:06.993Z,93191.25
2022-09-28T13:23:40.891Z,93183.56
2022-09-28T13:26:31.608Z,93186.31
2022-09-28T13:29:05.642Z,93183.91
2022-09-28T13:31:38.344Z,93192.53
2022-09-28T13:34:21.777Z,93195.41
2022-09-28T13:37:26.956Z,93183.91
2022-09-28T13:39:58.114Z,93189.06
2022-09-28T13:42:46.856Z,93197.56
2022-09-28T13:45:24.745Z,93206.63
2022-09-28T13:47:53.726Z,93204.31
2022-09-28T13:50:26.881Z,93202.63
2022-09-28T13:53:28.610Z,93211.00
2022-09-28T13:56:25.750Z,93216.59
2022-09-28T13:59:02.850Z,93224.16
2022-09-28T14:02:06.930Z,93219.81
2022-09-28T14:05:02.527Z,93222.75
2022-09-28T14:07:37.275Z,93224.53
2022-09-28T14:10:20.599Z,93223.91
2022-09-28T14:12:56.187Z,93220.63
2022-09-28T14:15:30.792Z,93221.00
2022-09-28T14:18:18.420Z,93233.28
2022-09-28T14:21:27.976Z,93233.75
2022-09-28T14:24:15.075Z,93235.03
2022-09-28T14:26:59.542Z,93238.72
2022-09-28T14:29:33.171Z,93241.38
2022-09-28T14:32:26.475Z,93235.53
2022-09-28T14:35:02.520Z,93238.19
2022-09-28T14:37:54.408Z,93238.09
2022-09-28T14:40:48.706Z,93243.53
2022-09-28T14:43:39.456Z,93240.41
2022-09-28T14:46:16.940Z,93236.78
2022-09-28T14:48:52.310Z,93240.88
2022-09-28T14:51:32.410Z,93253.00
2022-09-28T14:54:14.413Z,93241.84
2022-09-28T14:56:57.730Z,93246.22
2022-09-28T14:59:37.733Z,93249.72
2022-09-28T15:02:27.938Z,93241.94
2022-09-28T15:05:15.264Z,93239.50
2022-09-28T15:07:53.423Z,93241.25
2022-09-28T15:10:38.405Z,93245.31
2022-09-28T15:13:22.952Z,93245.69
2022-09-28T15:16:01.098Z,93246.13
2022-09-28T15:18:54.507Z,93248.41
2022-09-28T15:21:23.923Z,93253.09
2022-09-28T15:23:52.511Z,93254.81
2022-09-28T15:26:33.399Z,93264.47
2022-09-28T15:29:05.620Z,93267.25
2022-09-28T15:31:37.272Z,93261.28
2022-09-28T15:34:23.841Z,93266.91
2022-09-28T15:36:52.604Z,93272.59
2022-09-28T15:39:27.323Z,93273.31
2022-09-28T15:41:55.500Z,93284.31
2022-09-28T15:44:33.634Z,93291.34
2022-09-28T15:47:26.119Z,93281.81
2022-09-28T15:50:04.793Z,93279.84
2022-09-28T15:52:48.283Z,93283.41
2022-09-28T15:55:19.735Z,93289.06
2022-09-28T15:57:49.071Z,93286.69
2022-09-28T16:00:26.584Z,93293.44
2022-09-28T16:03:10.105Z,93298.00
2022-09-28T16:05:46.628Z,93302.06
2022-09-28T16:08:38.619Z,93295.50
2022-09-28T16:11:14.203Z,93301.41
2022-09-28T16:13:56.220Z,93306.81
2022-09-28T16:16:31.197Z,93309.78
2022-09-28T16:19:02.268Z,93306.88
2022-09-28T16:21:47.310Z,93302.63
2022-09-28T16:24:49.820Z,93302.13
2022-09-28T16:27:30.139Z,93301.34
2022-09-28T16:30:23.012Z,93308.00
2022-09-28T16:32:53.593Z,93314.94
2022-09-28T16:35:26.718Z,93303.22
2022-09-28T16:37:59.450Z,93305.03
2022-09-28T16:40:29.058Z,93308.75
2022-09-28T16:43:04.183Z,93315.13
2022-09-28T16:45:33.848Z,93314.72
2022-09-28T16:48:04.326Z,93312.59
2022-09-28T16:50:32.890Z,93317.53
2022-09-28T16:53:30.931Z,93314.84
2022-09-28T16:56:01.048Z,93310.03
2022-09-28T16:58:33.042Z,93316.84
2022-09-28T17:01:02.113Z,93319.50
2022-09-28T17:03:31.167Z,93329.63
2022-09-28T17:06:00.030Z,93331.56
2022-09-28T17:08:28.929Z,93332.22
2022-09-28T17:11:19.205Z,93331.75
2022-09-28T17:13:49.408Z,93329.00
2022-09-28T17:16:32.605Z,93327.00
2022-09-28T17:19:07.386Z,93326.50
2022-09-28T17:21:35.706Z,93332.38
2022-09-28T17:24:04.224Z,93336.72
2022-09-28T17:26:38.120Z,93330.22
2022-09-28T17:29:09.979Z,93327.31
2022-09-28T17:31:38.710Z,93331.44
2022-09-28T17:34:07.254Z,93335.41
2022-09-28T17:36:35.802Z,93335.75
2022-09-28T17:39:04.200Z,93338.59
2022-09-28T17:41:33.439Z,93336.44
2022-09-28T17:44:04.092Z,93332.06
2022-09-28T17:46:36.213Z,93333.63
2022-09-28T17:49:07.651Z,93329.50
2022-09-28T17:51:40.783Z,93333.44
2022-09-28T17:54:10.162Z,93335.78
2022-09-28T17:56:38.936Z,93331.03
2022-09-28T17:59:09.720Z,93331.22
2022-09-28T18:01:41.092Z,93330.22
2022-09-28T18:04:27.629Z,93324.97
2022-09-28T18:07:01.851Z,93320.88
2022-09-28T18:09:30.857Z,93320.88
2022-09-28T18:12:05.093Z,93323.16
2022-09-28T18:14:33.719Z,93329.38
2022-09-28T18:17:01.785Z,93326.69
2022-09-28T18:19:32.356Z,93325.94
2022-09-28T18:22:02.600Z,93324.34
2022-09-28T18:24:30.642Z,93323.69
2022-09-28T18:26:59.099Z,93328.25
2022-09-28T18:29:32.221Z,93332.13
2022-09-28T18:32:01.796Z,93329.06
2022-09-28T18:34:30.334Z,93328.19
2022-09-28T18:36:58.759Z,93329.00
2022-09-28T18:39:27.854Z,93332.16
2022-09-28T18:41:56.488Z,93329.25
2022-09-28T18:44:26.300Z,93325.09
2022-09-28T18:46:55.408Z,93316.88
2022-09-28T18:49:24.736Z,93308.47
2022-09-28T18:51:53.178Z,93311.00
2022-09-28T18:54:21.912Z,93307.47
2022-09-28T18:56:52.480Z,93315.81
2022-09-28T18:59:20.563Z,93314.06
2022-09-28T19:01:49.324Z,93318.81
2022-09-28T19:04:18.140Z,93312.94
2022-09-28T19:06:51.604Z,93319.63
2022-09-28T19:09:21.829Z,93311.84
2022-09-28T19:11:50.919Z,93313.91
2022-09-28T19:14:19.487Z,93312.25
2022-09-28T19:16:48.279Z,93310.50
2022-09-28T19:19:19.088Z,93311.97
2022-09-28T19:21:48.962Z,93312.94
2022-09-28T19:24:19.021Z,93311.16
2022-09-28T19:26:47.840Z,93309.66
2022-09-28T19:29:17.331Z,93310.94
2022-09-28T19:31:46.013Z,93314.41
2022-09-28T19:34:14.559Z,93307.75
2022-09-28T19:36:43.191Z,93311.81
2022-09-28T19:39:15.882Z,93311.66
2022-09-28T19:41:46.692Z,93305.44
2022-09-28T19:44:28.454Z,93307.88
2022-09-28T19:47:08.617Z,93304.75
2022-09-28T19:49:39.800Z,93311.88
2022-09-28T19:52:17.472Z,93298.41
2022-09-28T19:54:47.331Z,93310.34
2022-09-28T19:57:17.119Z,93303.53
2022-09-28T19:59:48.482Z,93301.34
2022-09-28T20:02:21.020Z,93305.53
2022-09-28T20:04:49.733Z,93308.72
2022-09-28T20:07:18.364Z,93300.91
2022-09-28T20:09:46.968Z,93304.25
2022-09-28T20:12:15.898Z,93297.59
2022-09-28T20:14:44.448Z,93296.34
2022-09-28T20:17:13.184Z,93299.25
2022-09-28T20:19:41.858Z,93298.63
2022-09-28T20:22:10.402Z,93296.41
2022-09-28T20:24:38.978Z,93298.19
2022-09-28T20:27:07.882Z,93294.34
2022-09-28T20:29:36.624Z,93298.72
2022-09-28T20:32:05.275Z,93289.88
2022-09-28T20:34:35.285Z,93289.00
2022-09-28T20:37:03.873Z,93286.56
2022-09-28T20:39:32.443Z,93281.97
2022-09-28T20:42:01.020Z,93293.09
2022-09-28T20:44:30.740Z,93289.09
2022-09-28T20:46:59.316Z,93303.59
2022-09-28T20:49:29.394Z,93297.38
2022-09-28T20:51:58.038Z,93305.25
2022-09-28T20:54:26.647Z,93302.44
2022-09-28T20:56:55.222Z,93286.38
2022-09-28T20:59:27.029Z,93306.28
2022-09-28T21:01:55.687Z,93298.84
2022-09-28T21:04:24.307Z,93299.13
2022-09-28T21:06:53.172Z,93300.75
2022-09-28T21:09:21.789Z,93299.13
2022-09-28T21:11:50.383Z,93279.53
2022-09-28T21:14:20.017Z,93289.50
2022-09-28T21:16:48.671Z,93292.44
2022-09-28T21:19:17.174Z,93282.97
2022-09-28T21:21:46.016Z,93282.91
2022-09-28T21:24:17.834Z,93283.00
2022-09-28T21:26:46.432Z,93272.53
2022-09-28T21:29:17.069Z,93282.09
2022-09-28T21:31:48.237Z,93284.88
2022-09-28T21:34:22.506Z,93280.47
2022-09-28T21:36:54.443Z,93281.03
2022-09-28T21:39:23.423Z,93294.00
2022-09-28T21:41:51.951Z,93271.97
2022-09-28T21:44:20.418Z,93278.06
2022-09-28T21:46:49.274Z,93279.66
2022-09-28T21:49:17.967Z,93274.81
2022-09-28T21:51:48.667Z,93289.00
2022-09-28T21:54:17.263Z,93295.09
2022-09-28T21:56:46.017Z,93269.97
2022-09-28T21:59:17.675Z,93269.97
2022-09-28T22:01:46.268Z,93276.75
2022-09-28T22:04:14.950Z,93263.72
2022-09-28T22:06:43.643Z,93274.59
2022-09-28T22:09:12.215Z,93282.94
2022-09-28T22:11:40.850Z,93286.16
2022-09-28T22:14:12.171Z,93304.19
2022-09-28T22:16:40.760Z,93303.47
2022-09-28T22:19:09.279Z,93287.50
2022-09-28T22:21:37.677Z,93269.75
2022-09-28T22:24:08.578Z,93277.31
2022-09-28T22:26:38.903Z,93290.34
2022-09-28T22:29:10.094Z,93275.38
2022-09-28T22:31:41.638Z,93297.91
2022-09-28T22:34:11.170Z,93303.94
2022-09-28T22:36:39.964Z,93300.41
2022-09-28T22:39:08.636Z,93308.66
2022-09-28T22:41:37.224Z,93303.53
2022-09-28T22:44:06.044Z,93296.84
2022-09-28T22:46:34.981Z,93291.84
2022-09-28T22:49:04.106Z,93289.78
2022-09-28T22:51:33.320Z,93279.03
2022-09-28T22:54:02.222Z,93289.28
2022-09-28T22:56:31.345Z,93266.75
2022-09-28T22:59:00.303Z,93274.47
2022-09-28T23:01:30.937Z,93267.47
2022-09-28T23:04:00.692Z,93283.66
2022-09-28T23:06:32.113Z,93287.41
2022-09-28T23:09:01.731Z,93297.25
2022-09-28T23:11:31.047Z,93304.47
2022-09-28T23:14:00.917Z,93301.94
2022-09-28T23:16:31.169Z,93309.31
2022-09-28T23:18:59.777Z,93309.91
2022-09-28T23:21:29.405Z,93298.72
2022-09-28T23:24:02.435Z,93288.16
2022-09-28T23:26:34.032Z,93287.03
2022-09-28T23:29:02.693Z,93283.94
2022-09-28T23:31:33.441Z,93275.44
2022-09-28T23:34:04.835Z,93279.28
2022-09-28T23:36:34.138Z,93272.03
2022-09-28T23:39:03.014Z,93268.84
2022-09-28T23:41:32.077Z,93269.44
2022-09-28T23:44:00.861Z,93283.72
2022-09-28T23:46:29.461Z,93293.00
2022-09-28T23:48:58.092Z,93300.94
2022-09-28T23:51:26.764Z,93300.16
2022-09-28T23:53:58.002Z,93288.03
2022-09-28T23:56:26.528Z,93289.47
2022-09-28T23:58:55.106Z,93289.97
